createdAt,value
2023-02-12T00:00:58.117Z,24.23
2023-02-12T00:03:26.056Z,24.43
2023-02-12T00:05:54.211Z,24.23
2023-02-12T00:08:22.289Z,23.70
2023-02-12T00:10:50.216Z,22.20
2023-02-12T00:13:18.084Z,20.47
2023-02-12T00:15:46.759Z,20.57
2023-02-12T00:18:16.070Z,22.80
2023-02-12T00:20:43.949Z,18.60
2023-02-12T00:23:12.355Z,22.40
2023-02-12T00:25:42.652Z,19.17
2023-02-12T00:28:10.593Z,21.07
2023-02-12T00:30:38.644Z,23.17
2023-02-12T00:33:06.659Z,21.90
2023-02-12T00:35:35.926Z,19.37
2023-02-12T00:38:03.910Z,17.97
2023-02-12T00:40:33.021Z,22.07
2023-02-12T00:43:00.877Z,20.03
2023-02-12T00:45:28.752Z,17.73
2023-02-12T00:47:56.678Z,23.10
2023-02-12T00:50:24.524Z,18.77
2023-02-12T00:52:53.829Z,19.30
2023-02-12T00:55:21.882Z,19.30
2023-02-12T00:57:49.803Z,18.97
2023-02-12T01:00:18.176Z,17.83
2023-02-12T01:02:46.097Z,19.87
2023-02-12T01:05:15.367Z,21.40
2023-02-12T01:07:43.373Z,22.77
2023-02-12T01:10:12.837Z,21.97
2023-02-12T01:12:40.751Z,19.83
2023-02-12T01:15:10.359Z,19.63
2023-02-12T01:17:38.402Z,19.67
2023-02-12T01:20:08.216Z,17.97
2023-02-12T01:22:37.083Z,18.50
2023-02-12T01:25:05.558Z,22.03
2023-02-12T01:27:34.997Z,19.03
2023-02-12T01:30:02.865Z,21.30
2023-02-12T01:32:30.869Z,21.57
2023-02-12T01:34:58.777Z,23.67
2023-02-12T01:37:26.699Z,21.10
2023-02-12T01:39:54.573Z,20.93
2023-02-12T01:42:22.604Z,20.40
2023-02-12T01:45:23.866Z,22.67
2023-02-12T01:47:53.768Z,20.67
2023-02-12T01:50:22.179Z,18.30
2023-02-12T01:52:54.907Z,22.47
2023-02-12T01:55:23.449Z,20.40
2023-02-12T01:57:51.835Z,19.43
2023-02-12T02:00:21.406Z,19.33
2023-02-12T02:02:53.686Z,15.90
2023-02-12T02:05:28.961Z,20.23
2023-02-12T02:07:57.254Z,18.07
2023-02-12T02:10:25.151Z,19.53
2023-02-12T02:13:10.794Z,18.77
2023-02-12T02:15:40.215Z,19.57
2023-02-12T02:18:15.565Z,20.13
2023-02-12T02:21:02.003Z,19.53
2023-02-12T02:23:52.034Z,19.87
2023-02-12T02:26:40.951Z,17.77
2023-02-12T02:29:43.161Z,18.80
2023-02-12T02:32:16.234Z,20.63
2023-02-12T02:34:51.350Z,19.27
2023-02-12T02:37:24.736Z,19.60
2023-02-12T02:39:56.302Z,18.20
2023-02-12T02:42:30.046Z,19.07
2023-02-12T02:45:03.316Z,20.90
2023-02-12T02:47:38.895Z,18.63
2023-02-12T02:50:11.732Z,17.33
2023-02-12T02:52:44.276Z,17.70
2023-02-12T02:55:15.636Z,16.73
2023-02-12T02:57:48.764Z,19.93
2023-02-12T03:00:22.186Z,15.73
2023-02-12T03:02:54.403Z,13.77
2023-02-12T03:05:28.338Z,14.30
2023-02-12T03:08:01.078Z,17.53
2023-02-12T03:10:32.683Z,15.07
2023-02-12T03:13:05.011Z,18.97
2023-02-12T03:15:38.302Z,15.83
2023-02-12T03:18:13.742Z,16.30
2023-02-12T03:20:46.179Z,15.97
2023-02-12T03:23:18.117Z,14.57
2023-02-12T03:25:54.211Z,16.23
2023-02-12T03:28:26.723Z,16.63
2023-02-12T03:31:02.535Z,16.27
2023-02-12T03:33:42.541Z,16.63
2023-02-12T03:36:18.324Z,16.80
2023-02-12T03:38:49.355Z,17.93
2023-02-12T03:41:23.831Z,16.40
2023-02-12T03:43:56.463Z,14.67
2023-02-12T03:46:31.183Z,15.70
2023-02-12T03:49:05.826Z,16.37
2023-02-12T03:51:37.680Z,17.47
2023-02-12T03:54:06.942Z,17.57
2023-02-12T03:56:41.878Z,20.47
2023-02-12T03:59:09.935Z,16.33
2023-02-12T04:01:38.124Z,19.07
2023-02-12T04:04:09.729Z,14.83
2023-02-12T04:06:37.680Z,17.87
2023-02-12T04:09:10.035Z,17.00
2023-02-12T04:11:49.073Z,16.23
2023-02-12T04:14:25.789Z,18.43
2023-02-12T04:17:01.538Z,19.17
2023-02-12T04:19:50.651Z,18.43
2023-02-12T04:22:29.565Z,17.13
2023-02-12T04:25:11.385Z,15.83
2023-02-12T04:27:48.218Z,16.10
2023-02-12T04:30:22.436Z,16.67
2023-02-12T04:32:54.544Z,16.17
2023-02-12T04:35:26.995Z,17.63
2023-02-12T04:38:00.452Z,17.30
2023-02-12T04:40:28.896Z,16.60
2023-02-12T04:42:57.088Z,17.13
2023-02-12T04:45:27.754Z,16.87
2023-02-12T04:47:55.856Z,16.97
2023-02-12T04:50:25.592Z,16.77
2023-02-12T04:52:53.864Z,17.23
2023-02-12T04:55:21.707Z,14.43
2023-02-12T04:57:49.608Z,17.47
2023-02-12T05:00:18.432Z,17.67
2023-02-12T05:02:46.376Z,17.80
2023-02-12T05:05:14.340Z,18.07
2023-02-12T05:07:43.599Z,18.10
2023-02-12T05:10:12.033Z,14.83
2023-02-12T05:12:40.012Z,15.67
2023-02-12T05:15:08.345Z,14.30
2023-02-12T05:17:36.288Z,15.27
2023-02-12T05:20:04.803Z,14.67
2023-02-12T05:22:32.788Z,16.77
2023-02-12T05:25:01.963Z,14.83
2023-02-12T05:27:29.865Z,15.90
2023-02-12T05:29:57.881Z,14.57
2023-02-12T05:32:25.931Z,14.70
2023-02-12T05:34:53.730Z,14.67
2023-02-12T05:37:21.573Z,18.77
2023-02-12T05:39:50.401Z,17.60
2023-02-12T05:42:19.612Z,18.03
2023-02-12T05:44:47.462Z,15.80
2023-02-12T05:47:15.506Z,16.93
2023-02-12T05:49:43.889Z,15.73
2023-02-12T05:52:11.708Z,19.63
2023-02-12T05:54:39.548Z,15.73
2023-02-12T05:57:08.328Z,16.97
2023-02-12T05:59:37.535Z,18.03
2023-02-12T06:02:05.366Z,17.00
2023-02-12T06:04:33.196Z,18.27
2023-02-12T06:07:01.809Z,16.97
2023-02-12T06:09:29.787Z,16.13
2023-02-12T06:11:57.712Z,16.27
2023-02-12T06:14:25.725Z,17.50
2023-02-12T06:16:54.930Z,17.47
2023-02-12T06:19:24.306Z,21.97
2023-02-12T06:21:52.154Z,17.00
2023-02-12T06:24:20.129Z,21.17
2023-02-12T06:26:51.351Z,17.27
2023-02-12T06:29:19.299Z,19.67
2023-02-12T06:31:47.609Z,18.83
2023-02-12T06:34:18.044Z,21.83
2023-02-12T06:36:47.368Z,19.60
2023-02-12T06:39:16.740Z,18.67
2023-02-12T06:41:44.888Z,19.10
2023-02-12T06:44:13.901Z,19.03
2023-02-12T06:46:42.021Z,18.47
2023-02-12T06:49:12.773Z,17.10
2023-02-12T06:51:42.366Z,19.60
2023-02-12T06:54:14.228Z,17.93
2023-02-12T06:56:42.118Z,19.23
2023-02-12T06:59:15.680Z,18.57
2023-02-12T07:01:43.992Z,17.70
2023-02-12T07:04:12.620Z,18.63
2023-02-12T07:06:41.945Z,16.37
2023-02-12T07:09:09.839Z,18.03
2023-02-12T07:11:38.771Z,17.97
2023-02-12T07:14:07.249Z,21.93
2023-02-12T07:16:36.430Z,20.10
2023-02-12T07:19:04.486Z,64.53
2023-02-12T07:21:32.892Z,94.37
2023-02-12T07:24:02.078Z,31.23
2023-02-12T07:26:30.028Z,21.60
2023-02-12T07:28:59.406Z,22.47
2023-02-12T07:31:27.405Z,20.73
2023-02-12T07:33:56.775Z,17.60
2023-02-12T07:36:25.877Z,18.43
2023-02-12T07:38:54.609Z,19.13
2023-02-12T07:41:25.844Z,20.13
2023-02-12T07:43:56.649Z,20.13
2023-02-12T07:46:29.650Z,20.20
2023-02-12T07:48:58.796Z,22.90
2023-02-12T07:51:28.031Z,18.03
2023-02-12T07:53:56.198Z,20.37
2023-02-12T07:56:29.591Z,19.60
2023-02-12T07:58:58.022Z,22.30
2023-02-12T08:01:30.085Z,20.53
2023-02-12T08:06:54.685Z,24.00
2023-02-12T08:09:24.506Z,35.97
2023-02-12T08:11:54.437Z,23.30
2023-02-12T08:14:23.093Z,22.80
2023-02-12T08:16:51.809Z,20.47
2023-02-12T08:19:24.043Z,20.77
2023-02-12T08:21:54.701Z,24.57
2023-02-12T08:24:22.939Z,23.07
2023-02-12T08:26:51.657Z,19.43
2023-02-12T08:29:24.165Z,18.03
2023-02-12T08:31:57.109Z,22.43
2023-02-12T08:34:26.972Z,22.30
2023-02-12T08:36:55.750Z,21.63
2023-02-12T08:39:24.521Z,20.13
2023-02-12T08:41:54.778Z,24.97
2023-02-12T08:44:24.513Z,41.77
2023-02-12T08:46:55.730Z,26.70
2023-02-12T08:49:25.876Z,26.50
2023-02-12T08:51:56.205Z,23.30
2023-02-12T08:54:26.255Z,21.20
2023-02-12T08:56:56.617Z,27.73
2023-02-12T08:59:25.980Z,24.33
2023-02-12T09:01:54.463Z,24.07
2023-02-12T09:04:24.467Z,24.03
2023-02-12T09:06:53.080Z,27.87
2023-02-12T09:09:22.066Z,25.07
2023-02-12T09:11:50.127Z,24.03
2023-02-12T09:14:23.674Z,26.03
2023-02-12T09:16:53.856Z,28.27
2023-02-12T09:19:21.894Z,29.63
2023-02-12T09:21:55.218Z,29.37
2023-02-12T09:24:24.251Z,29.53
2023-02-12T09:26:52.132Z,28.50
2023-02-12T09:29:20.073Z,30.33
2023-02-12T09:31:48.185Z,32.30
2023-02-12T09:34:17.508Z,31.07
2023-02-12T09:36:45.496Z,33.30
2023-02-12T09:39:13.392Z,28.93
2023-02-12T09:42:10.566Z,30.73
2023-02-12T09:44:46.661Z,33.13
2023-02-12T09:47:21.656Z,34.20
2023-02-12T09:50:12.272Z,34.53
2023-02-12T09:52:40.498Z,27.23
2023-02-12T09:55:15.580Z,31.70
2023-02-12T09:57:54.482Z,34.50
2023-02-12T10:00:27.973Z,33.47
2023-02-12T10:02:56.516Z,37.40
2023-02-12T10:05:30.157Z,33.03
2023-02-12T10:08:14.952Z,36.77
2023-02-12T10:10:52.473Z,31.97
2023-02-12T10:13:37.446Z,31.80
2023-02-12T10:16:14.156Z,33.30
2023-02-12T10:18:59.641Z,25.80
2023-02-12T10:21:41.971Z,20.43
2023-02-12T10:24:28.364Z,22.73
2023-02-12T10:26:59.529Z,17.73
2023-02-12T10:29:31.187Z,15.27
2023-02-12T10:32:04.436Z,10.20
2023-02-12T10:34:35.088Z,39.43
2023-02-12T10:37:10.606Z,16.93
2023-02-12T10:39:43.909Z,11.17
2023-02-12T10:42:16.031Z,10.07
2023-02-12T10:44:44.021Z,9.07
2023-02-12T10:47:19.495Z,7.10
2023-02-12T10:49:57.524Z,7.07
2023-02-12T10:52:37.356Z,6.63
2023-02-12T10:55:23.979Z,4.20
2023-02-12T10:57:52.396Z,6.20
2023-02-12T11:00:26.701Z,5.53
2023-02-12T11:03:04.007Z,5.30
2023-02-12T11:05:35.804Z,4.73
2023-02-12T11:08:06.231Z,4.87
2023-02-12T11:10:39.402Z,45.67
2023-02-12T11:13:18.255Z,12.47
2023-02-12T11:15:49.330Z,6.57
2023-02-12T11:18:26.285Z,5.13
2023-02-12T11:20:56.951Z,7.30
2023-02-12T11:23:29.334Z,4.97
2023-02-12T11:26:00.113Z,6.33
2023-02-12T11:28:28.642Z,6.00
2023-02-12T11:31:01.702Z,6.33
2023-02-12T11:33:37.666Z,5.23
2023-02-12T11:36:14.616Z,7.57
2023-02-12T11:38:54.455Z,6.63
2023-02-12T11:41:28.508Z,7.57
2023-02-12T11:43:57.012Z,6.27
2023-02-12T11:46:27.784Z,5.57
2023-02-12T11:49:04.338Z,6.20
2023-02-12T11:51:33.368Z,8.37
2023-02-12T11:54:06.236Z,6.00
2023-02-12T11:56:46.654Z,6.53
2023-02-12T11:59:30.644Z,6.20
2023-02-12T12:02:01.285Z,9.17
2023-02-12T12:04:32.534Z,7.27
2023-02-12T12:07:06.454Z,5.07
2023-02-12T12:09:40.632Z,6.43
2023-02-12T12:12:14.543Z,7.33
2023-02-12T12:15:06.789Z,5.53
2023-02-12T12:17:59.855Z,5.67
2023-02-12T12:20:32.982Z,4.90
2023-02-12T12:23:06.094Z,4.60
2023-02-12T12:25:41.756Z,3.57
2023-02-12T12:28:29.950Z,35.77
2023-02-12T12:31:11.187Z,5.00
2023-02-12T12:33:43.654Z,3.83
2023-02-12T12:36:43.848Z,3.63
2023-02-12T12:39:35.815Z,4.37
2023-02-12T12:42:42.280Z,2.53
2023-02-12T12:45:26.211Z,2.57
2023-02-12T12:48:09.062Z,3.27
2023-02-12T12:50:52.885Z,2.77
2023-02-12T12:53:38.652Z,3.30
2023-02-12T12:56:30.715Z,2.87
2023-02-12T12:59:35.619Z,2.80
2023-02-12T13:02:39.080Z,2.20
2023-02-12T13:05:25.914Z,4.77
2023-02-12T13:08:04.300Z,3.13
2023-02-12T13:10:37.886Z,2.73
2023-02-12T13:13:18.052Z,3.87
2023-02-12T13:15:55.247Z,3.20
2023-02-12T13:18:34.159Z,4.07
2023-02-12T13:21:07.146Z,3.50
2023-02-12T13:23:42.711Z,2.97
2023-02-12T13:26:18.380Z,3.77
2023-02-12T13:28:50.773Z,3.10
2023-02-12T13:31:33.342Z,3.87
2023-02-12T13:34:05.483Z,3.17
2023-02-12T13:36:37.055Z,3.00
2023-02-12T13:39:11.819Z,2.50
2023-02-12T13:41:41.507Z,3.00
2023-02-12T13:44:21.303Z,2.40
2023-02-12T13:47:00.532Z,1.77
2023-02-12T13:49:40.308Z,2.73
2023-02-12T13:52:13.388Z,3.10
2023-02-12T13:54:54.130Z,3.47
2023-02-12T13:57:22.647Z,3.03
2023-02-12T13:59:53.651Z,2.93
2023-02-12T14:02:49.492Z,2.80
2023-02-12T14:05:24.041Z,2.93
2023-02-12T14:07:54.128Z,2.63
2023-02-12T14:10:25.322Z,2.53
2023-02-12T14:12:56.604Z,2.97
2023-02-12T14:15:36.936Z,2.90
2023-02-12T14:18:28.355Z,2.63
2023-02-12T14:21:42.980Z,8.60
2023-02-12T14:24:47.530Z,3.03
2023-02-12T14:27:30.902Z,3.13
2023-02-12T14:30:17.868Z,2.70
2023-02-12T14:33:20.281Z,2.30
2023-02-12T14:36:10.551Z,3.27
2023-02-12T14:39:06.679Z,3.73
2023-02-12T14:41:43.431Z,2.77
2023-02-12T14:44:48.884Z,1.93
2023-02-12T14:47:56.026Z,2.70
2023-02-12T14:50:29.952Z,2.77
2023-02-12T14:53:07.238Z,2.00
2023-02-12T14:55:36.722Z,3.73
2023-02-12T14:58:08.075Z,3.37
2023-02-12T15:00:39.075Z,4.77
2023-02-12T15:03:19.740Z,2.63
2023-02-12T15:05:54.442Z,2.37
2023-02-12T15:08:32.130Z,2.40
2023-02-12T15:11:10.358Z,43.90
2023-02-12T15:13:48.684Z,11.73
2023-02-12T15:16:25.088Z,5.90
2023-02-12T15:18:57.772Z,3.30
2023-02-12T15:21:27.673Z,1.97
2023-02-12T15:24:11.446Z,2.33
2023-02-12T15:26:47.793Z,3.20
2023-02-12T15:29:23.205Z,2.83
2023-02-12T15:31:56.771Z,2.10
2023-02-12T15:34:27.470Z,2.33
2023-02-12T15:37:01.140Z,2.80
2023-02-12T15:39:44.509Z,3.53
2023-02-12T15:42:29.991Z,3.80
2023-02-12T15:45:20.150Z,3.33
2023-02-12T15:48:00.240Z,8.20
2023-02-12T15:50:28.848Z,4.07
2023-02-12T15:52:57.550Z,3.87
2023-02-12T15:55:30.447Z,3.47
2023-02-12T15:58:00.293Z,4.20
2023-02-12T16:00:33.023Z,4.00
2023-02-12T16:03:00.956Z,4.00
2023-02-12T16:05:29.154Z,3.67
2023-02-12T16:07:57.301Z,4.17
2023-02-12T16:10:27.207Z,19.73
2023-02-12T16:12:55.900Z,7.83
2023-02-12T16:15:27.054Z,3.53
2023-02-12T16:17:56.464Z,4.03
2023-02-12T16:20:27.605Z,3.03
2023-02-12T16:22:56.636Z,5.27
2023-02-12T16:25:28.552Z,5.43
2023-02-12T16:28:02.961Z,4.00
2023-02-12T16:30:33.609Z,4.17
2023-02-12T16:33:02.799Z,2.70
2023-02-12T16:35:33.074Z,4.47
2023-02-12T16:38:04.377Z,2.80
2023-02-12T16:40:36.536Z,2.33
2023-02-12T16:43:23.412Z,3.90
2023-02-12T16:45:51.880Z,22.40
2023-02-12T16:48:25.106Z,6.53
2023-02-12T16:50:58.030Z,7.77
2023-02-12T16:53:43.637Z,6.20
2023-02-12T16:56:18.181Z,4.17
2023-02-12T16:58:48.381Z,5.40
2023-02-12T17:01:19.682Z,6.10
2023-02-12T17:03:50.464Z,6.67
2023-02-12T17:06:20.275Z,10.83
2023-02-12T17:08:48.273Z,11.83
2023-02-12T17:11:18.009Z,13.47
2023-02-12T17:13:46.892Z,15.60
2023-02-12T17:16:29.410Z,24.63
2023-02-12T17:18:58.493Z,40.90
2023-02-12T17:21:28.235Z,31.00
2023-02-12T17:23:56.319Z,23.37
2023-02-12T17:26:26.503Z,12.40
2023-02-12T17:28:54.385Z,9.50
2023-02-12T17:31:23.901Z,6.37
2023-02-12T17:33:52.074Z,6.63
2023-02-12T17:36:19.993Z,10.73
2023-02-12T17:38:47.874Z,9.90
2023-02-12T17:41:15.833Z,5.63
2023-02-12T17:43:46.270Z,7.07
2023-02-12T17:46:22.535Z,7.93
2023-02-12T17:48:50.425Z,11.47
2023-02-12T17:51:18.597Z,10.30
2023-02-12T17:53:46.838Z,7.10
2023-02-12T17:56:16.393Z,7.57
2023-02-12T17:58:49.803Z,5.60
2023-02-12T18:01:20.132Z,7.43
2023-02-12T18:03:48.193Z,6.63
2023-02-12T18:06:23.604Z,8.97
2023-02-12T18:08:51.804Z,9.47
2023-02-12T18:11:20.022Z,7.90
2023-02-12T18:13:49.473Z,7.43
2023-02-12T18:16:17.398Z,5.63
2023-02-12T18:18:45.312Z,4.57
2023-02-12T18:21:15.835Z,7.43
2023-02-12T18:23:44.653Z,5.57
2023-02-12T18:26:14.323Z,5.27
2023-02-12T18:28:42.754Z,8.03
2023-02-12T18:31:12.902Z,5.90
2023-02-12T18:33:40.928Z,5.03
2023-02-12T18:36:11.616Z,7.47
2023-02-12T18:38:41.076Z,7.07
2023-02-12T18:41:09.901Z,5.30
2023-02-12T18:43:38.189Z,6.17
2023-02-12T18:46:10.028Z,5.90
2023-02-12T18:48:39.646Z,5.97
2023-02-12T18:51:09.464Z,6.20
2023-02-12T18:53:37.635Z,5.07
2023-02-12T18:56:06.748Z,5.73
2023-02-12T18:58:35.201Z,5.47
2023-02-12T19:01:03.189Z,5.07
2023-02-12T19:03:31.139Z,7.13
2023-02-12T19:06:06.170Z,7.27
2023-02-12T19:08:34.084Z,6.80
2023-02-12T19:11:02.064Z,7.23
2023-02-12T19:13:29.896Z,7.33
2023-02-12T19:15:58.040Z,9.17
2023-02-12T19:18:25.965Z,9.23
2023-02-12T19:20:53.873Z,7.97
2023-02-12T19:23:23.163Z,8.70
2023-02-12T19:25:50.999Z,8.53
2023-02-12T19:28:18.869Z,6.40
2023-02-12T19:30:46.751Z,7.97
2023-02-12T19:33:15.169Z,6.47
2023-02-12T19:35:43.164Z,7.87
2023-02-12T19:38:11.024Z,10.43
2023-02-12T19:40:40.254Z,9.30
2023-02-12T19:43:08.148Z,9.80
2023-02-12T19:45:36.097Z,7.20
2023-02-12T19:48:03.940Z,7.97
2023-02-12T19:50:33.239Z,28.80
2023-02-12T19:53:02.870Z,16.77
2023-02-12T19:55:30.785Z,10.90
2023-02-12T19:58:00.070Z,7.90
2023-02-12T20:00:27.938Z,7.13
2023-02-12T20:02:55.915Z,8.30
2023-02-12T20:05:23.770Z,10.57
2023-02-12T20:07:51.737Z,9.53
2023-02-12T20:10:19.784Z,8.70
2023-02-12T20:12:47.696Z,6.73
2023-02-12T20:15:17.099Z,9.73
2023-02-12T20:17:44.982Z,10.67
2023-02-12T20:20:14.227Z,11.63
2023-02-12T20:22:42.137Z,16.03
2023-02-12T20:25:10.119Z,19.30
2023-02-12T20:27:38.076Z,11.20
2023-02-12T20:30:07.299Z,9.93
2023-02-12T20:32:36.554Z,8.37
2023-02-12T20:35:04.465Z,10.33
2023-02-12T20:37:33.187Z,10.03
2023-02-12T20:40:01.030Z,12.17
2023-02-12T20:42:28.963Z,10.77
2023-02-12T20:44:56.812Z,13.03
2023-02-12T20:47:28.712Z,12.57
2023-02-12T20:49:58.708Z,15.43
2023-02-12T20:52:26.667Z,10.60
2023-02-12T20:54:54.525Z,11.03
2023-02-12T20:57:22.583Z,8.97
2023-02-12T20:59:50.841Z,8.53
2023-02-12T21:02:19.272Z,10.13
2023-02-12T21:04:47.205Z,8.87
2023-02-12T21:07:16.621Z,7.57
2023-02-12T21:09:44.595Z,9.57
2023-02-12T21:12:12.469Z,11.37
2023-02-12T21:14:40.492Z,11.27
2023-02-12T21:17:08.453Z,9.67
2023-02-12T21:19:36.941Z,9.37
2023-02-12T21:22:05.166Z,8.30
2023-02-12T21:24:34.627Z,9.67
2023-02-12T21:27:02.568Z,11.57
2023-02-12T21:29:33.439Z,8.93
2023-02-12T21:32:01.843Z,11.30
2023-02-12T21:34:29.861Z,7.80
2023-02-12T21:36:58.242Z,8.70
2023-02-12T21:39:28.408Z,10.40
2023-02-12T21:42:00.039Z,8.37
2023-02-12T21:44:29.068Z,7.40
2023-02-12T21:46:57.700Z,9.27
2023-02-12T21:49:27.620Z,18.20
2023-02-12T21:51:58.070Z,15.17
2023-02-12T21:54:26.782Z,7.37
2023-02-12T21:56:54.803Z,8.17
2023-02-12T21:59:24.789Z,8.17
2023-02-12T22:01:56.224Z,8.60
2023-02-12T22:04:24.147Z,9.53
2023-02-12T22:06:54.061Z,8.50
2023-02-12T22:09:23.432Z,10.73
2023-02-12T22:11:52.873Z,10.83
2023-02-12T22:14:21.739Z,9.30
2023-02-12T22:16:51.787Z,12.10
2023-02-12T22:19:19.745Z,11.57
2023-02-12T22:21:51.319Z,8.73
2023-02-12T22:24:19.318Z,13.07
2023-02-12T22:26:47.272Z,13.63
2023-02-12T22:29:16.800Z,10.93
2023-02-12T22:31:46.376Z,11.80
2023-02-12T22:34:17.181Z,10.63
2023-02-12T22:36:45.591Z,9.57
2023-02-12T22:39:15.294Z,9.73
2023-02-12T22:41:43.491Z,11.33
2023-02-12T22:44:12.600Z,10.97
2023-02-12T22:46:40.670Z,9.90
2023-02-12T22:49:08.528Z,11.57
2023-02-12T22:51:39.514Z,11.60
2023-02-12T22:54:08.076Z,12.10
2023-02-12T22:56:36.086Z,12.43
2023-02-12T22:59:03.983Z,11.07
2023-02-12T23:01:32.060Z,13.70
2023-02-12T23:04:00.168Z,11.13
2023-02-12T23:06:30.307Z,12.13
2023-02-12T23:09:01.328Z,9.47
2023-02-12T23:11:31.234Z,12.20
2023-02-12T23:13:59.438Z,11.27
2023-02-12T23:16:27.485Z,11.43
2023-02-12T23:18:56.782Z,10.77
2023-02-12T23:21:25.894Z,10.73
2023-02-12T23:23:54.170Z,10.70
2023-02-12T23:26:24.168Z,12.40
2023-02-12T23:28:52.301Z,9.00
2023-02-12T23:31:20.324Z,10.07
2023-02-12T23:33:48.249Z,12.33
2023-02-12T23:36:16.382Z,11.33
2023-02-12T23:38:44.284Z,10.27
2023-02-12T23:41:12.181Z,11.10
2023-02-12T23:43:41.390Z,12.27
2023-02-12T23:46:09.661Z,11.80
2023-02-12T23:48:37.749Z,9.33
2023-02-12T23:51:06.069Z,11.40
2023-02-12T23:53:34.029Z,10.43
2023-02-12T23:56:01.954Z,10.83
2023-02-12T23:58:29.941Z,11.07
